K. D. Matanzima Airport

Airport
ICAO code: 
FAUT
IATA Code: 
UTT
Summary
ICAO Region: 
AFI
Territory: 
Location: 
, Eastern Cape
Serving: 
Umtata
Elevation: 
2400 ft
Coordinates: 
Aerial View: 
31° 32' 52.451" S, 28° 40' 27.44" E
Metar
Observation
FAUT 291700Z 09011KT 9999 SCT025 18/14 Q1014
Station
Umtata
Date/Time
2021-11-29 17:00:00
Wind direction
90°
Wind speed
11 kts
Lowest cloud amount
scattered clouds
Temperature
18°C
Dew point
14°C
Humidity
77%
QNH
1014 hPa
Weather condition
n/a

Runways

Designator Length Width Surface Rops
9/27 1500 30 GRE No/No
14/32 2000 23 ASP No/No
Airport map: 
Aerial View: 

SKYbrary Partners:

Safety knowledge contributed by: